createdAt,value
2023-03-26T00:01:38.133Z,97174.91
2023-03-26T00:04:08.515Z,97166.97
2023-03-26T00:06:39.578Z,97162.59
2023-03-26T00:09:10.329Z,97165.34
2023-03-26T00:11:38.829Z,97164.53
2023-03-26T00:14:09.406Z,97163.75
2023-03-26T00:16:37.779Z,97158.22
2023-03-26T00:19:06.238Z,97156.94
2023-03-26T00:21:34.900Z,97149.47
2023-03-26T00:24:06.042Z,97150.13
2023-03-26T00:26:37.548Z,97161.97
2023-03-26T00:29:09.868Z,97152.88
2023-03-26T00:31:39.826Z,97151.28
2023-03-26T00:34:10.478Z,97158.72
2023-03-26T00:36:38.943Z,97161.47
2023-03-26T00:39:07.502Z,97163.44
2023-03-26T00:41:37.035Z,97163.44
2023-03-26T00:44:06.116Z,97164.56
2023-03-26T00:46:36.285Z,97157.09
2023-03-26T00:49:05.040Z,97157.91
2023-03-26T00:51:35.042Z,97161.81
2023-03-26T00:54:03.545Z,97167.31
2023-03-26T00:56:32.028Z,97156.28
2023-03-26T00:59:01.173Z,97158.56
2023-03-26T01:01:31.413Z,97153.06
2023-03-26T01:04:24.285Z,97151.09
2023-03-26T01:06:54.187Z,97144.78
2023-03-26T01:09:27.273Z,97138.47
2023-03-26T01:11:56.103Z,97140.91
2023-03-26T01:14:26.750Z,97134.91
2023-03-26T01:16:57.620Z,97122.75
2023-03-26T01:19:33.804Z,97124.69
2023-03-26T01:22:02.760Z,97115.63
2023-03-26T01:24:32.866Z,97117.56
2023-03-26T01:27:10.990Z,97112.88
2023-03-26T01:29:45.370Z,97119.50
2023-03-26T01:32:23.055Z,97114.00
2023-03-26T01:35:06.247Z,97102.97
2023-03-26T01:37:46.742Z,97099.41
2023-03-26T01:40:23.652Z,97089.19
2023-03-26T01:42:59.620Z,97077.69
2023-03-26T01:45:33.066Z,97080.47
2023-03-26T01:48:01.762Z,97074.13
2023-03-26T01:50:30.208Z,97073.31
2023-03-26T01:52:58.749Z,97070.56
2023-03-26T01:55:38.135Z,97061.50
2023-03-26T01:58:13.752Z,97059.06
2023-03-26T02:00:47.912Z,97053.56
2023-03-26T02:03:26.399Z,97059.06
2023-03-26T02:05:59.373Z,97048.06
2023-03-26T02:08:35.561Z,97047.25
2023-03-26T02:11:11.484Z,97040.13
2023-03-26T02:13:42.653Z,97038.16
2023-03-26T02:16:16.408Z,97036.56
2023-03-26T02:18:46.280Z,97034.59
2023-03-26T02:21:20.451Z,97033.78
2023-03-26T02:23:57.612Z,97022.78
2023-03-26T02:26:27.787Z,97026.66
2023-03-26T02:29:06.871Z,97014.84
2023-03-26T02:31:37.895Z,97009.34
2023-03-26T02:34:06.542Z,97004.63
2023-03-26T02:36:37.905Z,97004.16
2023-03-26T02:39:06.720Z,96993.94
2023-03-26T02:41:41.234Z,96993.13
2023-03-26T02:44:12.171Z,96988.44
2023-03-26T02:47:00.988Z,96990.38
2023-03-26T02:49:49.420Z,96986.50
2023-03-26T02:52:36.332Z,96994.75
2023-03-26T02:55:05.308Z,96990.38
2023-03-26T02:57:35.705Z,96991.53
2023-03-26T03:00:18.346Z,96983.25
2023-03-26T03:02:47.895Z,96972.22
2023-03-26T03:05:32.793Z,96965.91
2023-03-26T03:08:20.610Z,96960.41
2023-03-26T03:11:03.994Z,96956.84
2023-03-26T03:13:42.163Z,96964.31
2023-03-26T03:16:13.150Z,96958.00
2023-03-26T03:18:41.736Z,96949.72
2023-03-26T03:21:10.610Z,96946.16
2023-03-26T03:23:39.146Z,96942.59
2023-03-26T03:26:18.308Z,96945.34
2023-03-26T03:28:54.112Z,96942.59
2023-03-26T03:31:22.879Z,96939.84
2023-03-26T03:33:52.051Z,96940.66
2023-03-26T03:36:23.030Z,96934.34
2023-03-26T03:39:02.761Z,96936.28
2023-03-26T03:41:32.166Z,96932.72
2023-03-26T03:44:04.540Z,96924.47
2023-03-26T03:46:34.243Z,96920.88
2023-03-26T03:49:02.880Z,96918.13
2023-03-26T03:51:36.512Z,96914.56
2023-03-26T03:54:08.537Z,96898.03
2023-03-26T03:56:49.199Z,96891.72
2023-03-26T03:59:34.389Z,96890.94
2023-03-26T04:02:06.308Z,96889.31
2023-03-26T04:04:42.038Z,96885.41
2023-03-26T04:07:13.521Z,96886.56
2023-03-26T04:10:17.551Z,96882.16
2023-03-26T04:13:09.101Z,96882.97
2023-03-26T04:16:04.414Z,96879.41
2023-03-26T04:18:33.320Z,96868.38
2023-03-26T04:21:09.451Z,96873.91
2023-03-26T04:23:37.933Z,96865.63
2023-03-26T04:26:21.012Z,96864.81
2023-03-26T04:29:17.087Z,96854.63
2023-03-26T04:31:50.249Z,96858.50
2023-03-26T04:34:25.118Z,96841.97
2023-03-26T04:37:02.169Z,96835.66
2023-03-26T04:39:36.259Z,96825.47
2023-03-26T04:42:28.524Z,96813.63
2023-03-26T04:45:10.834Z,96812.81
2023-03-26T04:47:42.640Z,96807.31
2023-03-26T04:50:12.560Z,96802.63
2023-03-26T04:52:44.985Z,96806.50
2023-03-26T04:55:37.824Z,96801.81
2023-03-26T04:58:14.603Z,96802.94
2023-03-26T05:01:09.679Z,96807.31
2023-03-26T05:03:41.950Z,96796.31
2023-03-26T05:06:14.869Z,96795.50
2023-03-26T05:08:43.674Z,96787.22
2023-03-26T05:11:20.571Z,96777.34
2023-03-26T05:13:49.295Z,96771.84
2023-03-26T05:16:18.654Z,96776.56
2023-03-26T05:18:53.997Z,96771.84
2023-03-26T05:21:23.350Z,96767.47
2023-03-26T05:23:52.089Z,96763.91
2023-03-26T05:26:22.765Z,96774.94
2023-03-26T05:28:52.601Z,96776.56
2023-03-26T05:31:26.928Z,96777.22
2023-03-26T05:34:00.454Z,96784.34
2023-03-26T05:36:29.454Z,96778.03
2023-03-26T05:39:08.591Z,96762.31
2023-03-26T05:42:02.990Z,96751.16
2023-03-26T05:44:45.974Z,96740.94
2023-03-26T05:47:22.596Z,96750.34
2023-03-26T05:49:52.852Z,96742.09
2023-03-26T05:52:21.702Z,96743.22
2023-03-26T05:55:09.766Z,96743.56
2023-03-26T05:57:56.969Z,96747.13
2023-03-26T06:00:48.793Z,96738.53
2023-03-26T06:03:27.906Z,96723.94
2023-03-26T06:05:57.840Z,96730.59
2023-03-26T06:09:01.790Z,96731.75
2023-03-26T06:11:32.826Z,96731.75
2023-03-26T06:14:02.922Z,96727.84
2023-03-26T06:16:32.309Z,96725.09
2023-03-26T06:19:12.862Z,96712.47
2023-03-26T06:21:52.814Z,96710.84
2023-03-26T06:24:24.671Z,96712.47
2023-03-26T06:27:25.340Z,96728.19
2023-03-26T06:30:14.065Z,96712.47
2023-03-26T06:33:07.533Z,96695.94
2023-03-26T06:35:44.150Z,96695.94
2023-03-26T06:38:16.995Z,96691.25
2023-03-26T06:40:45.728Z,96675.53
2023-03-26T06:43:33.544Z,96671.63
2023-03-26T06:46:34.301Z,96661.44
2023-03-26T06:49:21.491Z,96660.63
2023-03-26T06:52:16.397Z,96650.41
2023-03-26T06:55:12.802Z,96656.72
2023-03-26T06:57:51.842Z,96655.13
2023-03-26T07:00:48.746Z,96648.47
2023-03-26T07:03:43.203Z,96639.06
2023-03-26T07:06:30.512Z,96631.94
2023-03-26T07:09:17.315Z,96626.44
2023-03-26T07:11:52.827Z,96624.47
2023-03-26T07:14:57.046Z,96619.78
2023-03-26T07:17:45.365Z,96614.28
2023-03-26T07:20:17.897Z,96614.28
2023-03-26T07:22:47.608Z,96614.28
2023-03-26T07:25:35.709Z,96598.56
2023-03-26T07:28:37.026Z,96608.78
2023-03-26T07:31:19.987Z,96593.84
2023-03-26T07:34:19.434Z,96580.09
2023-03-26T07:37:23.911Z,96571.03
2023-03-26T07:40:21.111Z,96567.00
2023-03-26T07:43:22.771Z,96552.91
2023-03-26T07:45:54.811Z,96552.91
2023-03-26T07:48:41.740Z,96554.03
2023-03-26T07:51:31.368Z,96544.97
2023-03-26T07:54:14.294Z,96544.97
2023-03-26T07:57:19.680Z,96533.16
2023-03-26T08:00:11.648Z,96532.34
2023-03-26T08:03:10.750Z,96533.97
2023-03-26T08:06:14.631Z,96528.44
2023-03-26T08:09:20.544Z,96527.66
2023-03-26T08:12:18.627Z,96540.59
2023-03-26T08:14:54.022Z,96528.44
2023-03-26T08:17:31.775Z,96522.94
2023-03-26T08:20:13.657Z,96517.44
2023-03-26T08:22:43.242Z,96499.31
2023-03-26T08:25:27.584Z,96503.19
2023-03-26T08:28:09.487Z,96507.22
2023-03-26T08:30:38.315Z,96506.88
2023-03-26T08:33:13.878Z,96495.06
2023-03-26T08:35:43.903Z,96497.00
2023-03-26T08:38:13.602Z,96499.31
2023-03-26T08:41:25.169Z,96487.38
2023-03-26T08:44:37.879Z,96485.75
2023-03-26T08:47:35.911Z,96480.94
2023-03-26T08:50:22.292Z,96482.41
2023-03-26T08:53:19.483Z,96485.53
2023-03-26T08:55:54.550Z,96485.06
2023-03-26T08:58:51.958Z,96464.53
2023-03-26T09:01:48.004Z,96479.31
2023-03-26T09:05:01.894Z,96479.78
2023-03-26T09:07:55.419Z,96486.44
2023-03-26T09:10:53.545Z,96466.34
2023-03-26T09:14:05.601Z,96462.81
2023-03-26T09:17:12.634Z,96469.78
2023-03-26T09:20:03.445Z,96474.50
2023-03-26T09:23:05.197Z,96473.56
2023-03-26T09:25:48.527Z,96473.56
2023-03-26T09:28:53.350Z,96483.44
2023-03-26T09:31:51.326Z,96484.56
2023-03-26T09:34:31.641Z,96471.16
2023-03-26T09:37:09.741Z,96479.06
2023-03-26T09:39:51.251Z,96472.09
2023-03-26T09:42:32.009Z,96475.97
2023-03-26T09:45:43.598Z,96477.13
2023-03-26T09:48:37.171Z,96473.56
2023-03-26T09:51:26.757Z,96475.84
2023-03-26T09:54:15.454Z,96457.06
2023-03-26T09:56:57.770Z,96465.09
2023-03-26T09:59:48.596Z,96451.09
2023-03-26T10:02:46.772Z,96450.88
2023-03-26T10:05:29.589Z,96438.16
2023-03-26T10:08:14.490Z,96456.91
2023-03-26T10:10:53.584Z,96445.22
2023-03-26T10:13:30.929Z,96443.59
2023-03-26T10:16:13.864Z,96448.66
2023-03-26T10:18:59.501Z,96436.78
2023-03-26T10:21:40.489Z,96439.25
2023-03-26T10:24:21.494Z,96443.59
2023-03-26T10:27:09.046Z,96441.31
2023-03-26T10:30:13.557Z,96443.38
2023-03-26T10:32:52.852Z,96437.19
2023-03-26T10:35:31.060Z,96434.88
2023-03-26T10:38:15.332Z,96427.09
2023-03-26T10:40:56.162Z,96420.78
2023-03-26T10:43:54.849Z,96428.22
2023-03-26T10:46:53.755Z,96433.41
2023-03-26T10:49:39.680Z,96423.63
2023-03-26T10:52:10.627Z,96423.63
2023-03-26T10:54:52.557Z,96426.84
2023-03-26T10:57:30.266Z,96420.19
2023-03-26T11:00:01.737Z,96424.22
2023-03-26T11:02:32.220Z,96427.78
2023-03-26T11:05:24.029Z,96421.91
2023-03-26T11:07:58.328Z,96423.19
2023-03-26T11:10:48.875Z,96414.91
2023-03-26T11:13:26.636Z,96423.63
2023-03-26T11:16:04.164Z,96423.63
2023-03-26T11:18:41.038Z,96422.03
2023-03-26T11:21:20.843Z,96425.94
2023-03-26T11:24:05.511Z,96417.22
2023-03-26T11:26:44.484Z,96407.34
2023-03-26T11:29:38.677Z,96410.09
2023-03-26T11:32:12.354Z,96417.22
2023-03-26T11:34:47.008Z,96401.47
2023-03-26T11:37:23.573Z,96399.53
2023-03-26T11:39:56.623Z,96398.28
2023-03-26T11:42:26.125Z,96402.97
2023-03-26T11:44:57.092Z,96404.13
2023-03-26T11:47:32.416Z,96405.28
2023-03-26T11:50:02.876Z,96400.91
2023-03-26T11:52:32.765Z,96402.19
2023-03-26T11:55:01.188Z,96391.03
2023-03-26T11:57:33.379Z,96386.19
2023-03-26T12:00:11.692Z,96391.22
2023-03-26T12:02:43.298Z,96398.53
2023-03-26T12:05:19.335Z,96405.06
2023-03-26T12:07:53.357Z,96399.44
2023-03-26T12:10:24.858Z,96387.69
2023-03-26T12:12:57.147Z,96391.25
2023-03-26T12:15:26.199Z,96384.25
2023-03-26T12:17:56.978Z,96387.50
2023-03-26T12:20:35.905Z,96385.19
2023-03-26T12:23:08.162Z,96373.00
2023-03-26T12:25:39.160Z,96381.28
2023-03-26T12:28:18.905Z,96368.28
2023-03-26T12:30:55.007Z,96368.28
2023-03-26T12:33:27.782Z,96368.63
2023-03-26T12:36:00.358Z,96364.72
2023-03-26T12:38:35.651Z,96378.06
2023-03-26T12:41:06.757Z,96363.78
2023-03-26T12:44:53.053Z,96361.38
2023-03-26T12:47:55.464Z,96349.09
2023-03-26T12:49:23.048Z,96344.72
2023-03-26T12:51:56.743Z,96351.75
2023-03-26T12:54:42.391Z,96342.22
2023-03-26T12:57:20.238Z,96339.00
2023-03-26T13:00:09.336Z,96335.34
2023-03-26T13:02:59.064Z,96337.31
2023-03-26T13:05:55.508Z,96326.63
2023-03-26T13:08:46.490Z,96323.88
2023-03-26T13:11:27.974Z,96331.69
2023-03-26T13:14:06.201Z,96325.28
2023-03-26T13:16:46.862Z,96327.13
2023-03-26T13:19:18.930Z,96319.53
2023-03-26T13:22:01.369Z,96311.97
2023-03-26T13:24:43.628Z,96317.03
2023-03-26T13:27:23.659Z,96298.09
2023-03-26T13:30:01.071Z,96303.16
2023-03-26T13:32:41.221Z,96298.03
2023-03-26T13:35:14.698Z,96293.22
2023-03-26T13:37:49.732Z,96290.44
2023-03-26T13:40:26.347Z,96296.31
2023-03-26T13:43:23.515Z,96288.38
2023-03-26T13:45:59.533Z,96288.75
2023-03-26T13:48:32.980Z,96280.81
2023-03-26T13:51:09.118Z,96269.34
2023-03-26T13:53:44.573Z,96273.25
2023-03-26T13:56:16.735Z,96273.25
2023-03-26T13:58:51.806Z,96251.91
2023-03-26T14:01:23.438Z,96249.16
2023-03-26T14:03:57.002Z,96245.94
2023-03-26T14:06:47.879Z,96244.78
2023-03-26T14:09:22.830Z,96239.28
2023-03-26T14:12:01.586Z,96236.97
2023-03-26T14:14:38.310Z,96234.69
2023-03-26T14:17:19.100Z,96242.94
2023-03-26T14:20:10.699Z,96235.13
2023-03-26T14:22:51.303Z,96225.25
2023-03-26T14:25:34.318Z,96232.84
2023-03-26T14:28:16.198Z,96233.19
2023-03-26T14:30:59.623Z,96227.66
2023-03-26T14:33:45.334Z,96222.97
2023-03-26T14:36:26.636Z,96228.47
2023-03-26T14:39:15.141Z,96225.72
2023-03-26T14:41:49.864Z,96234.78
2023-03-26T14:44:47.566Z,96241.91
2023-03-26T14:47:20.659Z,96241.91
2023-03-26T14:50:26.963Z,96228.47
2023-03-26T14:53:00.912Z,96241.09
2023-03-26T14:55:52.028Z,96230.06
2023-03-26T14:58:40.986Z,96241.09
2023-03-26T15:01:22.855Z,96248.91
2023-03-26T15:04:35.679Z,96244.78
2023-03-26T15:07:30.116Z,96263.88
2023-03-26T15:10:46.994Z,96255.41
2023-03-26T15:13:43.475Z,96257.69
2023-03-26T15:16:28.346Z,96281.34
2023-03-26T15:19:45.012Z,96287.75
2023-03-26T15:22:41.936Z,96303.59
2023-03-26T15:25:55.649Z,96308.41
2023-03-26T15:29:03.266Z,96324.94
2023-03-26T15:31:57.551Z,96325.72
2023-03-26T15:34:48.452Z,96314.72
2023-03-26T15:38:04.709Z,96322.63
2023-03-26T15:40:44.837Z,96314.38
2023-03-26T15:43:14.866Z,96313.22
2023-03-26T15:45:47.356Z,96307.69
2023-03-26T15:48:56.210Z,96317.56
2023-03-26T15:51:46.196Z,96321.13
2023-03-26T15:54:23.869Z,96325.84
2023-03-26T15:57:20.488Z,96334.09
2023-03-26T16:00:01.027Z,96328.25
2023-03-26T16:02:41.446Z,96324.69
2023-03-26T16:05:32.131Z,96323.53
2023-03-26T16:08:10.982Z,96327.09
2023-03-26T16:10:46.719Z,96331.81
2023-03-26T16:13:37.612Z,96334.56
2023-03-26T16:16:22.584Z,96324.34
2023-03-26T16:19:24.782Z,96340.06
2023-03-26T16:21:58.240Z,96345.59
2023-03-26T16:24:33.786Z,96341.22
2023-03-26T16:27:21.657Z,96343.16
2023-03-26T16:30:20.139Z,96348.69
2023-03-26T16:32:56.067Z,96358.91
2023-03-26T16:35:47.623Z,96367.50
2023-03-26T16:38:18.477Z,96374.50
2023-03-26T16:40:59.877Z,96366.47
2023-03-26T16:43:45.433Z,96375.91
2023-03-26T16:46:27.217Z,96380.59
2023-03-26T16:49:01.088Z,96383.69
2023-03-26T16:51:47.360Z,96383.69
2023-03-26T16:54:18.507Z,96388.06
2023-03-26T16:56:51.898Z,96386.91
2023-03-26T17:00:05.088Z,96399.66
2023-03-26T17:02:53.181Z,96398.97
2023-03-26T17:05:26.343Z,96404.13
2023-03-26T17:08:02.567Z,96403.66
2023-03-26T17:10:36.716Z,96398.84
2023-03-26T17:13:08.103Z,96402.75
2023-03-26T17:15:44.654Z,96411.69
2023-03-26T17:18:44.034Z,96416.75
2023-03-26T17:21:18.052Z,96413.53
2023-03-26T17:23:56.320Z,96425.69
2023-03-26T17:26:33.208Z,96421.34
2023-03-26T17:29:24.358Z,96428.47
2023-03-26T17:32:00.892Z,96418.13
2023-03-26T17:34:56.760Z,96416.53
2023-03-26T17:37:47.741Z,96422.03
2023-03-26T17:40:45.185Z,96417.31
2023-03-26T17:43:33.008Z,96417.44
2023-03-26T17:46:03.237Z,96420.19
2023-03-26T17:48:38.833Z,96415.50
2023-03-26T17:51:30.928Z,96422.94
2023-03-26T17:54:00.590Z,96430.88
2023-03-26T17:56:33.119Z,96430.06
2023-03-26T17:59:11.552Z,96424.56
2023-03-26T18:01:44.097Z,96426.97
2023-03-26T18:04:18.587Z,96425.03
2023-03-26T18:07:03.933Z,96425.03
2023-03-26T18:09:49.126Z,96416.75
2023-03-26T18:12:42.338Z,96420.31
2023-03-26T18:15:31.945Z,96416.28
2023-03-26T18:18:10.531Z,96413.06
2023-03-26T18:20:42.614Z,96422.94
2023-03-26T18:23:23.249Z,96419.03
2023-03-26T18:25:58.096Z,96420.66
2023-03-26T18:28:36.652Z,96434.44
2023-03-26T18:31:10.789Z,96436.38
2023-03-26T18:33:43.029Z,96437.97
2023-03-26T18:36:13.359Z,96441.53
2023-03-26T18:38:43.953Z,96449.34
2023-03-26T18:41:22.458Z,96442.56
2023-03-26T18:43:50.958Z,96450.03
2023-03-26T18:46:19.525Z,96439.00
2023-03-26T18:48:48.364Z,96443.38
2023-03-26T18:51:23.000Z,96436.72
2023-03-26T18:53:57.748Z,96436.72
2023-03-26T18:56:30.863Z,96437.19
2023-03-26T18:59:00.897Z,96436.03
2023-03-26T19:01:32.087Z,96431.31
2023-03-26T19:04:03.977Z,96431.66
2023-03-26T19:06:35.889Z,96429.38
2023-03-26T19:09:16.354Z,96414.69
2023-03-26T19:11:56.991Z,96423.06
2023-03-26T19:14:28.499Z,96410.44
2023-03-26T19:17:01.168Z,96412.84
2023-03-26T19:19:33.635Z,96419.97
2023-03-26T19:22:03.382Z,96414.47
2023-03-26T19:24:33.765Z,96411.69
2023-03-26T19:27:02.566Z,96408.94
2023-03-26T19:29:34.858Z,96403.44
2023-03-26T19:32:05.237Z,96405.03
2023-03-26T19:34:35.862Z,96404.25
2023-03-26T19:37:17.903Z,96400.69
2023-03-26T19:39:50.234Z,96396.31
2023-03-26T19:42:23.175Z,96407.34
2023-03-26T19:44:52.593Z,96406.19
2023-03-26T19:47:31.899Z,96397.94
2023-03-26T19:50:23.346Z,96397.94
2023-03-26T19:53:15.487Z,96403.44
2023-03-26T19:55:57.306Z,96398.72
2023-03-26T19:58:27.120Z,96395.97
2023-03-26T20:00:56.942Z,96396.31
2023-03-26T20:03:29.199Z,96405.72
2023-03-26T20:05:58.035Z,96399.75
2023-03-26T20:08:27.877Z,96405.63
2023-03-26T20:10:58.824Z,96402.75
2023-03-26T20:13:27.797Z,96400.00
2023-03-26T20:16:11.842Z,96412.16
2023-03-26T20:18:40.250Z,96411.34
2023-03-26T20:21:13.021Z,96407.34
2023-03-26T20:23:43.060Z,96421.09
2023-03-26T20:26:15.727Z,96415.91
2023-03-26T20:28:48.620Z,96410.75
2023-03-26T20:31:24.771Z,96408.34
2023-03-26T20:33:54.826Z,96409.81
2023-03-26T20:36:33.345Z,96407.06
2023-03-26T20:39:05.541Z,96398.34
2023-03-26T20:41:37.948Z,96398.34
2023-03-26T20:44:13.679Z,96405.00
2023-03-26T20:46:43.735Z,96416.38
2023-03-26T20:49:14.892Z,96413.59
2023-03-26T20:51:44.531Z,96413.59
2023-03-26T20:54:17.929Z,96412.81
2023-03-26T20:56:49.071Z,96411.19
2023-03-26T20:59:21.567Z,96409.59
2023-03-26T21:01:51.400Z,96407.97
2023-03-26T21:04:20.701Z,96408.31
2023-03-26T21:06:49.669Z,96409.47
2023-03-26T21:09:23.469Z,96411.06
2023-03-26T21:12:02.574Z,96413.03
2023-03-26T21:14:39.066Z,96421.28
2023-03-26T21:17:13.877Z,96424.03
2023-03-26T21:19:42.856Z,96426.78
2023-03-26T21:22:25.769Z,96416.94
2023-03-26T21:25:05.417Z,96409.81
2023-03-26T21:27:43.390Z,96414.16
2023-03-26T21:30:16.156Z,96411.41
2023-03-26T21:32:46.358Z,96401.56
2023-03-26T21:35:16.172Z,96408.22
2023-03-26T21:37:48.492Z,96407.06
2023-03-26T21:40:18.577Z,96401.09
2023-03-26T21:42:50.481Z,96395.59
2023-03-26T21:45:20.540Z,96408.22
2023-03-26T21:47:50.079Z,96405.44
2023-03-26T21:50:21.680Z,96401.44
2023-03-26T21:52:51.079Z,96402.25
2023-03-26T21:55:21.324Z,96408.53
2023-03-26T21:58:09.914Z,96405.78
2023-03-26T22:00:46.429Z,96400.63
2023-03-26T22:03:24.294Z,96406.13
2023-03-26T22:06:00.574Z,96404.53
2023-03-26T22:08:33.590Z,96408.44
2023-03-26T22:11:01.980Z,96413.94
2023-03-26T22:13:31.943Z,96407.97
2023-03-26T22:16:00.698Z,96409.91
2023-03-26T22:18:29.966Z,96402.81
2023-03-26T22:20:59.113Z,96405.22
2023-03-26T22:23:28.110Z,96402.00
2023-03-26T22:25:57.612Z,96409.09
2023-03-26T22:28:26.056Z,96402.00
2023-03-26T22:30:56.087Z,96404.75
2023-03-26T22:33:24.775Z,96400.38
2023-03-26T22:35:53.913Z,96405.91
2023-03-26T22:38:22.315Z,96403.13
2023-03-26T22:40:56.593Z,96406.69
2023-03-26T22:43:25.413Z,96406.69
2023-03-26T22:45:55.240Z,96402.00
2023-03-26T22:48:24.934Z,96412.19
2023-03-26T22:51:00.973Z,96414.16
2023-03-26T22:53:29.762Z,96411.41
2023-03-26T22:55:58.820Z,96417.72
2023-03-26T22:58:28.118Z,96420.47
2023-03-26T23:01:07.830Z,96429.53
2023-03-26T23:03:37.148Z,96435.03
2023-03-26T23:06:08.034Z,96435.03
2023-03-26T23:08:38.031Z,96433.41
2023-03-26T23:11:10.231Z,96444.44
2023-03-26T23:13:38.616Z,96451.09
2023-03-26T23:16:10.026Z,96440.06
2023-03-26T23:18:38.955Z,96455.44
2023-03-26T23:21:12.138Z,96455.44
2023-03-26T23:23:40.950Z,96470.34
2023-03-26T23:26:09.473Z,96468.06
2023-03-26T23:28:38.698Z,96462.91
2023-03-26T23:31:12.047Z,96471.16
2023-03-26T23:33:45.835Z,96467.59
2023-03-26T23:36:17.578Z,96475.06
2023-03-26T23:38:47.667Z,96469.53
2023-03-26T23:41:18.293Z,96475.06
2023-03-26T23:43:54.400Z,96472.63
2023-03-26T23:46:30.830Z,96476.19
2023-03-26T23:49:02.488Z,96482.50
2023-03-26T23:51:31.926Z,96478.94
2023-03-26T23:54:01.412Z,96476.53
2023-03-26T23:56:30.584Z,96477.34
2023-03-26T23:59:00.489Z,96483.66
